createdAt,value
2019-05-28T00:04:04.936Z,5.00
2019-05-28T00:09:10.170Z,4.40
2019-05-28T00:14:22.099Z,4.75
2019-05-28T00:19:26.839Z,4.87
2019-05-28T00:24:31.684Z,4.20
2019-05-28T00:29:36.470Z,4.37
2019-05-28T00:34:41.382Z,4.10
2019-05-28T00:39:46.229Z,3.70
2019-05-28T00:44:51.440Z,4.58
2019-05-28T00:49:56.270Z,4.42
2019-05-28T00:55:01.047Z,4.80
2019-05-28T01:00:07.253Z,5.20
2019-05-28T01:05:12.579Z,4.62
2019-05-28T01:10:24.118Z,4.30
2019-05-28T01:15:29.404Z,4.53
2019-05-28T01:20:34.306Z,4.40
2019-05-28T01:25:42.740Z,4.40
2019-05-28T01:30:55.987Z,4.10
2019-05-28T01:35:55.015Z,3.70
2019-05-28T01:40:59.846Z,3.85
2019-05-28T01:46:07.728Z,3.40
2019-05-28T01:51:12.623Z,3.53
2019-05-28T01:56:17.841Z,3.60
2019-05-28T02:01:22.701Z,3.30
2019-05-28T02:06:27.681Z,3.40
2019-05-28T02:11:32.505Z,2.98
2019-05-28T02:16:37.433Z,3.42
2019-05-28T02:21:42.510Z,3.40
2019-05-28T02:26:49.848Z,3.30
2019-05-28T02:31:54.753Z,3.33
2019-05-28T02:36:59.759Z,3.23
2019-05-28T02:42:05.059Z,3.47
2019-05-28T02:47:10.005Z,3.30
2019-05-28T02:52:15.647Z,3.22
2019-05-28T02:57:23.170Z,3.10
2019-05-28T03:02:29.668Z,3.37
2019-05-28T03:07:35.549Z,3.05
2019-05-28T03:12:42.784Z,3.37
2019-05-28T03:17:54.107Z,3.70
2019-05-28T03:23:00.262Z,3.37
2019-05-28T03:28:05.355Z,3.50
2019-05-28T03:33:10.369Z,3.50
2019-05-28T03:38:16.144Z,3.30
2019-05-28T03:43:21.072Z,3.52
2019-05-28T03:48:26.420Z,3.60
2019-05-28T03:53:31.251Z,3.80
2019-05-28T03:58:36.202Z,3.87
2019-05-28T04:03:42.251Z,4.40
2019-05-28T04:08:47.530Z,4.22
2019-05-28T04:13:52.428Z,4.65
2019-05-28T04:18:57.372Z,4.25
2019-05-28T04:24:02.605Z,4.47
2019-05-28T04:29:07.544Z,4.28
2019-05-28T04:34:12.525Z,4.42
2019-05-28T04:39:17.529Z,3.83
2019-05-28T04:44:22.532Z,4.80
2019-05-28T04:49:27.317Z,4.12
2019-05-28T04:54:32.262Z,4.00
2019-05-28T04:59:37.305Z,4.05
2019-05-28T05:04:48.295Z,4.00
2019-05-28T05:09:53.004Z,4.28
2019-05-28T05:15:03.753Z,4.22
2019-05-28T05:20:09.560Z,4.08
2019-05-28T05:25:14.799Z,3.70
2019-05-28T05:30:21.449Z,3.47
2019-05-28T05:35:26.270Z,3.83
2019-05-28T05:40:31.427Z,3.77
2019-05-28T05:45:36.409Z,3.55
2019-05-28T05:50:44.568Z,3.67
2019-05-28T05:55:48.030Z,3.47
2019-05-28T06:00:59.098Z,4.22
2019-05-28T06:06:04.863Z,3.78
2019-05-28T06:11:09.909Z,3.33
2019-05-28T06:16:15.366Z,4.00
2019-05-28T06:21:32.504Z,3.60
2019-05-28T06:26:37.442Z,3.80
2019-05-28T06:31:48.069Z,3.65
2019-05-28T06:36:53.433Z,2.92
2019-05-28T06:42:03.959Z,3.10
2019-05-28T06:47:09.322Z,3.00
2019-05-28T06:52:14.565Z,3.15
2019-05-28T06:57:22.871Z,2.87
2019-05-28T07:02:26.395Z,2.62
2019-05-28T07:07:31.235Z,2.83
2019-05-28T07:12:36.186Z,2.65
2019-05-28T07:17:41.349Z,2.55
2019-05-28T07:22:46.640Z,2.85
2019-05-28T07:28:07.286Z,2.50
2019-05-28T07:32:58.367Z,2.58
2019-05-28T07:38:03.303Z,2.45
2019-05-28T07:43:08.319Z,2.33
2019-05-28T07:48:13.197Z,2.42
2019-05-28T07:53:17.943Z,2.35
2019-05-28T07:58:23.066Z,3.10
2019-05-28T08:03:28.208Z,2.75
2019-05-28T08:08:34.751Z,2.47
2019-05-28T08:13:41.555Z,2.45
2019-05-28T08:18:46.564Z,2.70
2019-05-28T08:23:52.572Z,2.65
2019-05-28T08:28:59.680Z,2.58
2019-05-28T08:34:12.687Z,2.20
2019-05-28T08:39:17.546Z,2.27
2019-05-28T08:44:22.420Z,1.65
2019-05-28T08:49:27.339Z,2.22
2019-05-28T08:54:32.312Z,1.80
2019-05-28T08:59:37.299Z,2.20
2019-05-28T09:04:42.192Z,1.92
2019-05-28T09:09:47.175Z,1.92
2019-05-28T09:14:56.137Z,1.80
2019-05-28T09:20:00.516Z,2.10
2019-05-28T09:25:06.187Z,2.20
2019-05-28T09:30:12.088Z,2.13
2019-05-28T09:35:16.877Z,2.05
2019-05-28T09:40:21.871Z,2.20
2019-05-28T09:45:28.107Z,2.00
2019-05-28T09:50:32.987Z,1.70
2019-05-28T09:55:37.713Z,2.30
2019-05-28T10:00:56.620Z,2.02
2019-05-28T10:06:01.666Z,2.00
2019-05-28T10:10:56.535Z,1.92
2019-05-28T10:16:02.747Z,1.98
2019-05-28T10:21:18.199Z,1.90
2019-05-28T10:26:17.590Z,2.00
2019-05-28T10:31:22.610Z,1.70
2019-05-28T10:36:36.002Z,2.22
2019-05-28T10:41:33.762Z,2.20
2019-05-28T10:46:41.644Z,2.12
2019-05-28T10:51:46.548Z,2.15
2019-05-28T10:56:51.798Z,2.25
2019-05-28T11:01:56.846Z,2.05
2019-05-28T11:07:01.949Z,2.30
2019-05-28T11:12:12.719Z,1.75
2019-05-28T11:17:17.937Z,2.30
2019-05-28T11:22:22.738Z,1.87
2019-05-28T11:27:27.789Z,2.72
2019-05-28T11:32:32.879Z,1.80
2019-05-28T11:37:37.711Z,2.75
2019-05-28T11:42:43.629Z,2.20
2019-05-28T11:47:50.894Z,2.10
2019-05-28T11:52:55.046Z,2.15
2019-05-28T11:58:00.268Z,2.00
2019-05-28T12:03:05.585Z,2.33
2019-05-28T12:08:10.673Z,2.12
2019-05-28T12:13:16.024Z,2.30
2019-05-28T12:18:21.067Z,2.30
2019-05-28T12:23:26.085Z,3.12
2019-05-28T12:28:37.600Z,2.70
2019-05-28T12:33:37.636Z,2.00
2019-05-28T12:38:42.764Z,2.25
2019-05-28T12:43:47.726Z,2.30
2019-05-28T12:48:52.791Z,2.15
2019-05-28T12:53:58.415Z,2.22
2019-05-28T12:59:07.046Z,1.95
2019-05-28T13:04:12.349Z,2.04
2019-05-28T13:09:17.408Z,1.95
2019-05-28T13:14:22.449Z,1.65
2019-05-28T13:19:27.419Z,1.70
2019-05-28T13:24:32.670Z,1.77
2019-05-28T13:29:38.133Z,1.55
2019-05-28T13:34:43.307Z,1.20
2019-05-28T13:39:48.735Z,1.62
2019-05-28T13:45:02.050Z,1.55
2019-05-28T13:50:07.697Z,1.70
2019-05-28T13:55:14.182Z,1.27
2019-05-28T14:00:20.022Z,1.20
2019-05-28T14:05:25.145Z,1.30
2019-05-28T14:10:30.239Z,1.20
2019-05-28T14:15:35.275Z,1.50
2019-05-28T14:20:40.152Z,1.02
2019-05-28T14:25:45.203Z,1.00
2019-05-28T14:30:59.967Z,1.20
2019-05-28T14:35:57.308Z,0.98
2019-05-28T14:41:02.445Z,1.20
2019-05-28T14:46:07.871Z,1.05
2019-05-28T14:51:13.663Z,1.10
2019-05-28T14:56:23.241Z,1.40
2019-05-28T15:01:28.107Z,1.10
2019-05-28T15:06:32.947Z,1.40
2019-05-28T15:11:38.050Z,1.30
2019-05-28T15:16:43.099Z,1.40
2019-05-28T15:21:48.047Z,1.22
2019-05-28T15:26:52.956Z,1.50
2019-05-28T15:31:57.826Z,1.47
2019-05-28T15:37:03.025Z,1.50
2019-05-28T15:42:19.244Z,1.87
2019-05-28T15:47:19.380Z,1.40
2019-05-28T15:52:24.123Z,1.30
2019-05-28T15:57:28.921Z,1.50
2019-05-28T16:02:34.454Z,1.20
2019-05-28T16:07:39.889Z,1.40
2019-05-28T16:12:44.854Z,1.00
2019-05-28T16:17:49.719Z,1.13
2019-05-28T16:22:54.615Z,1.30
2019-05-28T16:27:59.326Z,1.15
2019-05-28T16:33:04.769Z,1.27
2019-05-28T16:38:09.528Z,1.47
2019-05-28T16:43:14.369Z,1.10
2019-05-28T16:48:19.667Z,1.07
2019-05-28T16:53:24.429Z,1.20
2019-05-28T16:58:29.462Z,1.00
2019-05-28T17:03:34.386Z,0.80
2019-05-28T17:08:52.954Z,1.10
2019-05-28T17:13:57.990Z,0.90
2019-05-28T17:19:06.013Z,1.10
2019-05-28T17:24:11.266Z,1.20
2019-05-28T17:29:16.192Z,1.20
2019-05-28T17:34:21.905Z,1.20
2019-05-28T17:39:27.711Z,1.42
2019-05-28T17:44:39.614Z,1.25
2019-05-28T17:49:49.407Z,1.00
2019-05-28T17:54:54.228Z,1.17
2019-05-28T17:59:59.253Z,1.00
2019-05-28T18:05:05.500Z,1.07
2019-05-28T18:10:11.929Z,1.20
2019-05-28T18:15:17.547Z,1.10
2019-05-28T18:20:22.441Z,1.10
2019-05-28T18:25:27.202Z,1.07
2019-05-28T18:30:31.969Z,0.90
2019-05-28T18:35:36.876Z,1.20
2019-05-28T18:40:47.935Z,1.30
2019-05-28T18:45:52.925Z,1.20
2019-05-28T18:50:57.780Z,0.85
2019-05-28T18:56:16.346Z,0.70
2019-05-28T19:01:10.500Z,1.00
2019-05-28T19:06:15.401Z,0.90
2019-05-28T19:11:20.297Z,1.12
2019-05-28T19:16:25.231Z,0.90
2019-05-28T19:21:30.284Z,1.17
2019-05-28T19:26:35.050Z,0.95
2019-05-28T19:31:39.881Z,1.00
2019-05-28T19:36:45.387Z,0.95
2019-05-28T19:41:54.221Z,1.05
2019-05-28T19:46:56.972Z,0.88
2019-05-28T19:52:01.986Z,1.00
2019-05-28T19:57:06.790Z,1.10
2019-05-28T20:02:12.839Z,0.95
2019-05-28T20:07:19.886Z,1.00
2019-05-28T20:12:24.845Z,1.03
2019-05-28T20:17:30.868Z,1.05
2019-05-28T20:22:35.686Z,1.00
2019-05-28T20:27:41.002Z,0.80
2019-05-28T20:32:45.917Z,0.90
2019-05-28T20:37:51.071Z,1.10
2019-05-28T20:42:58.325Z,0.85
2019-05-28T20:48:04.609Z,0.70
2019-05-28T20:53:09.616Z,1.10
2019-05-28T20:58:14.562Z,0.90
2019-05-28T21:03:19.716Z,1.00
2019-05-28T21:08:24.513Z,1.07
2019-05-28T21:13:29.558Z,1.00
2019-05-28T21:18:34.529Z,1.02
2019-05-28T21:23:39.547Z,0.95
2019-05-28T21:28:44.408Z,1.00
2019-05-28T21:33:50.623Z,0.95
2019-05-28T21:38:55.504Z,1.02
2019-05-28T21:44:00.628Z,0.90
2019-05-28T21:49:05.661Z,0.80
2019-05-28T21:54:10.555Z,0.90
2019-05-28T21:59:15.886Z,1.02
2019-05-28T22:04:20.731Z,1.30
2019-05-28T22:09:25.505Z,1.12
2019-05-28T22:14:30.319Z,1.10
2019-05-28T22:19:35.177Z,0.85
2019-05-28T22:24:41.217Z,0.98
2019-05-28T22:29:46.154Z,1.00
2019-05-28T22:34:52.111Z,1.00
2019-05-28T22:39:57.298Z,1.00
2019-05-28T22:45:03.195Z,0.72
2019-05-28T22:50:22.164Z,1.00
2019-05-28T22:55:20.338Z,1.30
2019-05-28T23:00:27.672Z,1.02
2019-05-28T23:05:32.635Z,1.00
2019-05-28T23:10:37.384Z,0.90
2019-05-28T23:15:42.234Z,1.07
2019-05-28T23:20:47.525Z,1.30
2019-05-28T23:25:52.856Z,1.17
2019-05-28T23:30:57.747Z,1.15
2019-05-28T23:36:03.141Z,1.17
2019-05-28T23:41:09.226Z,0.98
2019-05-28T23:46:14.307Z,1.10
2019-05-28T23:51:19.062Z,1.00
2019-05-28T23:56:24.024Z,0.80
